sensor_id;sensor_type;location;lat;lon;timestamp;P1;durP1;ratioP1;P2;durP2;ratioP2
62543;SDS011;48597;49.030;1.822;2023-07-31T00:01:53;0.63;;;0.60;;
62543;SDS011;48597;49.030;1.822;2023-07-31T00:04:18;2.38;;;0.75;;
62543;SDS011;48597;49.030;1.822;2023-07-31T00:06:43;0.98;;;0.82;;
62543;SDS011;48597;49.030;1.822;2023-07-31T00:09:09;0.88;;;0.77;;
62543;SDS011;48597;49.030;1.822;2023-07-31T00:11:34;1.10;;;1.00;;
62543;SDS011;48597;49.030;1.822;2023-07-31T00:14:00;0.60;;;0.60;;
62543;SDS011;48597;49.030;1.822;2023-07-31T00:16:25;0.73;;;0.73;;
62543;SDS011;48597;49.030;1.822;2023-07-31T00:18:51;0.90;;;0.80;;
62543;SDS011;48597;49.030;1.822;2023-07-31T00:21:16;1.08;;;0.73;;
62543;SDS011;48597;49.030;1.822;2023-07-31T00:23:41;1.08;;;0.80;;
62543;SDS011;48597;49.030;1.822;2023-07-31T00:26:07;1.00;;;0.82;;
62543;SDS011;48597;49.030;1.822;2023-07-31T00:28:32;0.80;;;0.70;;
62543;SDS011;48597;49.030;1.822;2023-07-31T00:30:58;1.45;;;0.90;;
62543;SDS011;48597;49.030;1.822;2023-07-31T00:33:23;1.35;;;0.90;;
62543;SDS011;48597;49.030;1.822;2023-07-31T00:35:48;0.80;;;0.80;;
62543;SDS011;48597;49.030;1.822;2023-07-31T00:38:14;0.70;;;0.70;;
62543;SDS011;48597;49.030;1.822;2023-07-31T00:40:39;0.90;;;0.80;;
62543;SDS011;48597;49.030;1.822;2023-07-31T00:43:05;0.70;;;0.70;;
62543;SDS011;48597;49.030;1.822;2023-07-31T00:45:30;0.85;;;0.80;;
62543;SDS011;48597;49.030;1.822;2023-07-31T00:47:56;0.80;;;0.80;;
62543;SDS011;48597;49.030;1.822;2023-07-31T00:50:22;0.65;;;0.60;;
62543;SDS011;48597;49.030;1.822;2023-07-31T00:52:50;0.80;;;0.77;;
62543;SDS011;48597;49.030;1.822;2023-07-31T00:55:15;0.80;;;0.80;;
62543;SDS011;48597;49.030;1.822;2023-07-31T00:57:41;0.65;;;0.65;;
62543;SDS011;48597;49.030;1.822;2023-07-31T01:00:07;1.10;;;0.98;;
62543;SDS011;48597;49.030;1.822;2023-07-31T01:02:33;1.10;;;0.80;;
62543;SDS011;48597;49.030;1.822;2023-07-31T01:04:59;1.10;;;0.60;;
62543;SDS011;48597;49.030;1.822;2023-07-31T01:07:27;1.23;;;0.88;;
62543;SDS011;48597;49.030;1.822;2023-07-31T01:10:04;0.70;;;0.70;;
62543;SDS011;48597;49.030;1.822;2023-07-31T01:12:36;0.82;;;0.68;;
62543;SDS011;48597;49.030;1.822;2023-07-31T01:15:07;1.00;;;0.90;;
62543;SDS011;48597;49.030;1.822;2023-07-31T01:17:37;0.70;;;0.70;;
62543;SDS011;48597;49.030;1.822;2023-07-31T01:20:04;0.80;;;0.80;;
62543;SDS011;48597;49.030;1.822;2023-07-31T01:22:54;0.68;;;0.60;;
62543;SDS011;48597;49.030;1.822;2023-07-31T01:25:28;0.80;;;0.80;;
62543;SDS011;48597;49.030;1.822;2023-07-31T01:28:01;1.08;;;0.98;;
62543;SDS011;48597;49.030;1.822;2023-07-31T01:30:33;0.90;;;0.80;;
62543;SDS011;48597;49.030;1.822;2023-07-31T01:33:03;1.10;;;0.90;;
62543;SDS011;48597;49.030;1.822;2023-07-31T01:35:35;1.10;;;1.00;;
62543;SDS011;48597;49.030;1.822;2023-07-31T01:38:02;0.80;;;0.80;;
62543;SDS011;48597;49.030;1.822;2023-07-31T01:40:27;1.13;;;1.00;;
62543;SDS011;48597;49.030;1.822;2023-07-31T01:42:52;1.08;;;0.85;;
62543;SDS011;48597;49.030;1.822;2023-07-31T01:45:18;1.02;;;0.88;;
62543;SDS011;48597;49.030;1.822;2023-07-31T01:47:43;1.77;;;0.88;;
62543;SDS011;48597;49.030;1.822;2023-07-31T01:50:09;0.80;;;0.80;;
62543;SDS011;48597;49.030;1.822;2023-07-31T01:52:34;0.93;;;0.85;;
62543;SDS011;48597;49.030;1.822;2023-07-31T01:55:00;1.20;;;0.95;;
62543;SDS011;48597;49.030;1.822;2023-07-31T01:57:25;0.90;;;0.80;;
62543;SDS011;48597;49.030;1.822;2023-07-31T01:59:51;1.00;;;0.90;;
62543;SDS011;48597;49.030;1.822;2023-07-31T02:02:18;1.55;;;0.90;;
62543;SDS011;48597;49.030;1.822;2023-07-31T02:04:43;0.73;;;0.73;;
62543;SDS011;48597;49.030;1.822;2023-07-31T02:07:09;0.82;;;0.70;;
62543;SDS011;48597;49.030;1.822;2023-07-31T02:09:34;1.15;;;0.60;;
62543;SDS011;48597;49.030;1.822;2023-07-31T02:12:00;0.82;;;0.82;;
62543;SDS011;48597;49.030;1.822;2023-07-31T02:14:25;1.45;;;0.98;;
62543;SDS011;48597;49.030;1.822;2023-07-31T02:16:50;1.00;;;0.88;;
62543;SDS011;48597;49.030;1.822;2023-07-31T02:19:16;1.10;;;1.00;;
62543;SDS011;48597;49.030;1.822;2023-07-31T02:21:41;0.85;;;0.80;;
62543;SDS011;48597;49.030;1.822;2023-07-31T02:24:06;0.80;;;0.80;;
62543;SDS011;48597;49.030;1.822;2023-07-31T02:26:32;1.65;;;1.05;;
62543;SDS011;48597;49.030;1.822;2023-07-31T02:28:57;0.98;;;0.80;;
62543;SDS011;48597;49.030;1.822;2023-07-31T02:31:22;1.00;;;0.90;;
62543;SDS011;48597;49.030;1.822;2023-07-31T02:33:48;1.02;;;0.93;;
62543;SDS011;48597;49.030;1.822;2023-07-31T02:36:13;0.70;;;0.70;;
62543;SDS011;48597;49.030;1.822;2023-07-31T02:38:39;0.70;;;0.70;;
62543;SDS011;48597;49.030;1.822;2023-07-31T02:41:05;1.02;;;0.70;;
62543;SDS011;48597;49.030;1.822;2023-07-31T02:43:30;1.20;;;0.80;;
62543;SDS011;48597;49.030;1.822;2023-07-31T02:45:56;2.65;;;0.90;;
62543;SDS011;48597;49.030;1.822;2023-07-31T02:48:21;1.13;;;0.73;;
62543;SDS011;48597;49.030;1.822;2023-07-31T02:50:47;1.73;;;1.00;;
62543;SDS011;48597;49.030;1.822;2023-07-31T02:53:12;1.02;;;0.80;;
62543;SDS011;48597;49.030;1.822;2023-07-31T02:55:38;1.08;;;0.98;;
62543;SDS011;48597;49.030;1.822;2023-07-31T02:58:04;1.00;;;0.90;;
62543;SDS011;48597;49.030;1.822;2023-07-31T03:00:29;1.00;;;0.90;;
62543;SDS011;48597;49.030;1.822;2023-07-31T03:02:55;1.10;;;0.98;;
62543;SDS011;48597;49.030;1.822;2023-07-31T03:05:20;1.00;;;0.90;;
62543;SDS011;48597;49.030;1.822;2023-07-31T03:07:45;0.82;;;0.82;;
62543;SDS011;48597;49.030;1.822;2023-07-31T03:10:11;0.88;;;0.88;;
62543;SDS011;48597;49.030;1.822;2023-07-31T03:12:37;0.93;;;0.90;;
62543;SDS011;48597;49.030;1.822;2023-07-31T03:15:02;1.00;;;0.90;;
62543;SDS011;48597;49.030;1.822;2023-07-31T03:17:28;0.85;;;0.80;;
62543;SDS011;48597;49.030;1.822;2023-07-31T03:19:54;0.80;;;0.70;;
62543;SDS011;48597;49.030;1.822;2023-07-31T03:22:19;0.88;;;0.80;;
62543;SDS011;48597;49.030;1.822;2023-07-31T03:24:44;0.98;;;0.85;;
62543;SDS011;48597;49.030;1.822;2023-07-31T03:27:10;0.80;;;0.80;;
62543;SDS011;48597;49.030;1.822;2023-07-31T03:29:35;1.70;;;0.90;;
62543;SDS011;48597;49.030;1.822;2023-07-31T03:32:01;1.67;;;0.90;;
62543;SDS011;48597;49.030;1.822;2023-07-31T03:34:26;0.80;;;0.80;;
62543;SDS011;48597;49.030;1.822;2023-07-31T03:36:51;0.80;;;0.80;;
62543;SDS011;48597;49.030;1.822;2023-07-31T03:39:17;1.00;;;0.90;;
62543;SDS011;48597;49.030;1.822;2023-07-31T03:41:43;1.10;;;1.00;;
62543;SDS011;48597;49.030;1.822;2023-07-31T03:44:08;1.00;;;0.90;;
62543;SDS011;48597;49.030;1.822;2023-07-31T03:46:34;0.80;;;0.80;;
62543;SDS011;48597;49.030;1.822;2023-07-31T03:49:01;1.13;;;0.90;;
62543;SDS011;48597;49.030;1.822;2023-07-31T03:51:26;0.75;;;0.75;;
62543;SDS011;48597;49.030;1.822;2023-07-31T03:53:51;1.20;;;0.90;;
62543;SDS011;48597;49.030;1.822;2023-07-31T03:56:17;0.80;;;0.80;;
62543;SDS011;48597;49.030;1.822;2023-07-31T03:58:43;0.75;;;0.75;;
62543;SDS011;48597;49.030;1.822;2023-07-31T04:01:08;2.00;;;0.75;;
62543;SDS011;48597;49.030;1.822;2023-07-31T04:03:34;1.60;;;0.95;;
62543;SDS011;48597;49.030;1.822;2023-07-31T04:06:00;1.17;;;0.90;;
62543;SDS011;48597;49.030;1.822;2023-07-31T04:08:25;0.98;;;0.88;;
62543;SDS011;48597;49.030;1.822;2023-07-31T04:10:51;0.80;;;0.80;;
62543;SDS011;48597;49.030;1.822;2023-07-31T04:13:16;1.55;;;0.90;;
62543;SDS011;48597;49.030;1.822;2023-07-31T04:15:41;1.30;;;0.73;;
62543;SDS011;48597;49.030;1.822;2023-07-31T04:18:07;1.10;;;0.80;;
62543;SDS011;48597;49.030;1.822;2023-07-31T04:20:32;1.13;;;0.82;;
62543;SDS011;48597;49.030;1.822;2023-07-31T04:22:58;1.05;;;0.90;;
62543;SDS011;48597;49.030;1.822;2023-07-31T04:25:23;0.90;;;0.88;;
62543;SDS011;48597;49.030;1.822;2023-07-31T04:27:49;1.00;;;0.90;;
62543;SDS011;48597;49.030;1.822;2023-07-31T04:30:14;1.10;;;0.90;;
62543;SDS011;48597;49.030;1.822;2023-07-31T04:32:40;1.52;;;0.90;;
62543;SDS011;48597;49.030;1.822;2023-07-31T04:35:05;0.95;;;0.88;;
62543;SDS011;48597;49.030;1.822;2023-07-31T04:37:31;1.00;;;0.90;;
62543;SDS011;48597;49.030;1.822;2023-07-31T04:39:56;1.00;;;0.80;;
62543;SDS011;48597;49.030;1.822;2023-07-31T04:42:22;1.00;;;0.90;;
62543;SDS011;48597;49.030;1.822;2023-07-31T04:44:47;1.27;;;1.00;;
62543;SDS011;48597;49.030;1.822;2023-07-31T04:47:12;1.05;;;0.90;;
62543;SDS011;48597;49.030;1.822;2023-07-31T04:49:38;1.08;;;0.90;;
62543;SDS011;48597;49.030;1.822;2023-07-31T04:52:03;1.33;;;0.80;;
62543;SDS011;48597;49.030;1.822;2023-07-31T04:54:29;0.82;;;0.80;;
62543;SDS011;48597;49.030;1.822;2023-07-31T04:56:55;0.93;;;0.90;;
62543;SDS011;48597;49.030;1.822;2023-07-31T04:59:21;1.50;;;1.02;;
62543;SDS011;48597;49.030;1.822;2023-07-31T05:01:47;1.25;;;0.80;;
62543;SDS011;48597;49.030;1.822;2023-07-31T05:04:13;1.08;;;0.90;;
62543;SDS011;48597;49.030;1.822;2023-07-31T05:06:39;1.02;;;0.88;;
62543;SDS011;48597;49.030;1.822;2023-07-31T05:09:05;1.10;;;0.98;;
62543;SDS011;48597;49.030;1.822;2023-07-31T05:11:30;1.20;;;1.10;;
62543;SDS011;48597;49.030;1.822;2023-07-31T05:13:55;1.38;;;1.00;;
62543;SDS011;48597;49.030;1.822;2023-07-31T05:16:21;1.23;;;1.13;;
62543;SDS011;48597;49.030;1.822;2023-07-31T05:18:46;1.83;;;1.00;;
62543;SDS011;48597;49.030;1.822;2023-07-31T05:21:12;1.23;;;0.90;;
62543;SDS011;48597;49.030;1.822;2023-07-31T05:23:38;1.10;;;1.00;;
62543;SDS011;48597;49.030;1.822;2023-07-31T05:26:04;1.10;;;0.73;;
62543;SDS011;48597;49.030;1.822;2023-07-31T05:28:30;1.60;;;1.00;;
62543;SDS011;48597;49.030;1.822;2023-07-31T05:30:58;1.13;;;0.90;;
62543;SDS011;48597;49.030;1.822;2023-07-31T05:33:30;1.77;;;1.10;;
62543;SDS011;48597;49.030;1.822;2023-07-31T05:35:56;1.75;;;1.05;;
62543;SDS011;48597;49.030;1.822;2023-07-31T05:38:21;1.10;;;0.90;;
62543;SDS011;48597;49.030;1.822;2023-07-31T05:40:47;1.00;;;0.80;;
62543;SDS011;48597;49.030;1.822;2023-07-31T05:43:13;1.60;;;1.00;;
62543;SDS011;48597;49.030;1.822;2023-07-31T05:45:39;1.30;;;1.08;;
62543;SDS011;48597;49.030;1.822;2023-07-31T05:48:05;1.10;;;1.00;;
62543;SDS011;48597;49.030;1.822;2023-07-31T05:50:31;1.67;;;0.82;;
62543;SDS011;48597;49.030;1.822;2023-07-31T05:52:56;1.48;;;1.10;;
62543;SDS011;48597;49.030;1.822;2023-07-31T05:55:22;1.00;;;0.90;;
62543;SDS011;48597;49.030;1.822;2023-07-31T05:57:48;1.80;;;1.00;;
62543;SDS011;48597;49.030;1.822;2023-07-31T06:00:14;1.00;;;0.90;;
62543;SDS011;48597;49.030;1.822;2023-07-31T06:02:39;1.27;;;1.00;;
62543;SDS011;48597;49.030;1.822;2023-07-31T06:05:05;1.88;;;1.00;;
62543;SDS011;48597;49.030;1.822;2023-07-31T06:07:31;1.20;;;1.10;;
62543;SDS011;48597;49.030;1.822;2023-07-31T06:09:57;1.63;;;1.10;;
62543;SDS011;48597;49.030;1.822;2023-07-31T06:12:28;1.27;;;0.98;;
62543;SDS011;48597;49.030;1.822;2023-07-31T06:14:54;1.35;;;1.00;;
62543;SDS011;48597;49.030;1.822;2023-07-31T06:17:20;1.38;;;0.90;;
62543;SDS011;48597;49.030;1.822;2023-07-31T06:19:46;2.00;;;1.23;;
62543;SDS011;48597;49.030;1.822;2023-07-31T06:22:11;1.45;;;1.13;;
62543;SDS011;48597;49.030;1.822;2023-07-31T06:24:37;1.80;;;1.40;;
62543;SDS011;48597;49.030;1.822;2023-07-31T06:27:02;1.33;;;0.93;;
62543;SDS011;48597;49.030;1.822;2023-07-31T06:29:29;1.88;;;1.20;;
62543;SDS011;48597;49.030;1.822;2023-07-31T06:31:55;1.48;;;1.02;;
62543;SDS011;48597;49.030;1.822;2023-07-31T06:34:20;1.58;;;1.10;;
62543;SDS011;48597;49.030;1.822;2023-07-31T06:36:45;1.77;;;1.05;;
62543;SDS011;48597;49.030;1.822;2023-07-31T06:39:11;1.92;;;1.05;;
62543;SDS011;48597;49.030;1.822;2023-07-31T06:41:36;1.38;;;1.10;;
62543;SDS011;48597;49.030;1.822;2023-07-31T06:44:02;1.88;;;1.08;;
62543;SDS011;48597;49.030;1.822;2023-07-31T06:46:28;1.45;;;1.10;;
62543;SDS011;48597;49.030;1.822;2023-07-31T06:48:53;1.10;;;1.00;;
62543;SDS011;48597;49.030;1.822;2023-07-31T06:51:19;2.08;;;1.05;;
62543;SDS011;48597;49.030;1.822;2023-07-31T06:53:45;1.65;;;1.15;;
62543;SDS011;48597;49.030;1.822;2023-07-31T06:56:10;2.25;;;0.88;;
62543;SDS011;48597;49.030;1.822;2023-07-31T06:58:36;1.20;;;1.10;;
62543;SDS011;48597;49.030;1.822;2023-07-31T07:01:01;1.15;;;0.95;;
62543;SDS011;48597;49.030;1.822;2023-07-31T07:03:26;1.58;;;1.20;;
62543;SDS011;48597;49.030;1.822;2023-07-31T07:05:52;1.85;;;1.40;;
62543;SDS011;48597;49.030;1.822;2023-07-31T07:08:17;1.30;;;1.20;;
62543;SDS011;48597;49.030;1.822;2023-07-31T07:10:43;1.95;;;1.20;;
62543;SDS011;48597;49.030;1.822;2023-07-31T07:13:08;1.75;;;1.20;;
62543;SDS011;48597;49.030;1.822;2023-07-31T07:15:34;2.00;;;1.20;;
62543;SDS011;48597;49.030;1.822;2023-07-31T07:18:00;1.67;;;1.20;;
62543;SDS011;48597;49.030;1.822;2023-07-31T07:20:25;1.75;;;1.20;;
62543;SDS011;48597;49.030;1.822;2023-07-31T07:22:51;1.38;;;1.10;;
62543;SDS011;48597;49.030;1.822;2023-07-31T07:25:16;1.33;;;1.00;;
62543;SDS011;48597;49.030;1.822;2023-07-31T07:27:41;1.63;;;1.33;;
62543;SDS011;48597;49.030;1.822;2023-07-31T07:30:07;2.17;;;1.40;;
62543;SDS011;48597;49.030;1.822;2023-07-31T07:32:32;1.42;;;1.10;;
62543;SDS011;48597;49.030;1.822;2023-07-31T07:34:58;1.63;;;0.98;;
62543;SDS011;48597;49.030;1.822;2023-07-31T07:37:23;2.33;;;1.23;;
62543;SDS011;48597;49.030;1.822;2023-07-31T07:39:49;1.52;;;1.17;;
62543;SDS011;48597;49.030;1.822;2023-07-31T07:42:14;1.95;;;1.40;;
62543;SDS011;48597;49.030;1.822;2023-07-31T07:44:40;2.13;;;1.30;;
62543;SDS011;48597;49.030;1.822;2023-07-31T07:47:06;1.48;;;1.30;;
62543;SDS011;48597;49.030;1.822;2023-07-31T07:49:32;2.92;;;1.80;;
62543;SDS011;48597;49.030;1.822;2023-07-31T07:51:59;3.70;;;1.50;;
62543;SDS011;48597;49.030;1.822;2023-07-31T07:54:24;4.85;;;1.73;;
62543;SDS011;48597;49.030;1.822;2023-07-31T07:56:49;1.63;;;1.33;;
62543;SDS011;48597;49.030;1.822;2023-07-31T07:59:15;2.40;;;1.35;;
62543;SDS011;48597;49.030;1.822;2023-07-31T08:01:40;2.92;;;1.70;;
62543;SDS011;48597;49.030;1.822;2023-07-31T08:04:06;3.50;;;1.60;;
62543;SDS011;48597;49.030;1.822;2023-07-31T08:06:31;2.25;;;1.20;;
62543;SDS011;48597;49.030;1.822;2023-07-31T08:08:56;2.63;;;1.52;;
62543;SDS011;48597;49.030;1.822;2023-07-31T08:11:22;2.35;;;1.40;;
62543;SDS011;48597;49.030;1.822;2023-07-31T08:13:48;3.63;;;1.50;;
62543;SDS011;48597;49.030;1.822;2023-07-31T08:16:14;2.38;;;1.27;;
62543;SDS011;48597;49.030;1.822;2023-07-31T08:18:39;2.08;;;1.30;;
62543;SDS011;48597;49.030;1.822;2023-07-31T08:21:05;2.53;;;1.50;;
62543;SDS011;48597;49.030;1.822;2023-07-31T08:23:31;2.88;;;1.50;;
62543;SDS011;48597;49.030;1.822;2023-07-31T08:25:56;2.35;;;1.77;;
62543;SDS011;48597;49.030;1.822;2023-07-31T08:28:21;2.63;;;1.48;;
62543;SDS011;48597;49.030;1.822;2023-07-31T08:30:47;1.80;;;1.20;;
62543;SDS011;48597;49.030;1.822;2023-07-31T08:33:12;1.67;;;1.50;;
62543;SDS011;48597;49.030;1.822;2023-07-31T08:35:38;1.70;;;1.52;;
62543;SDS011;48597;49.030;1.822;2023-07-31T08:38:03;3.25;;;1.40;;
62543;SDS011;48597;49.030;1.822;2023-07-31T08:40:29;2.53;;;1.58;;
62543;SDS011;48597;49.030;1.822;2023-07-31T08:42:55;2.13;;;1.63;;
62543;SDS011;48597;49.030;1.822;2023-07-31T08:45:27;2.10;;;1.42;;
62543;SDS011;48597;49.030;1.822;2023-07-31T08:47:53;3.75;;;1.50;;
62543;SDS011;48597;49.030;1.822;2023-07-31T08:50:20;1.45;;;1.17;;
62543;SDS011;48597;49.030;1.822;2023-07-31T08:52:46;5.05;;;1.52;;
62543;SDS011;48597;49.030;1.822;2023-07-31T08:55:13;3.88;;;1.40;;
62543;SDS011;48597;49.030;1.822;2023-07-31T08:57:39;2.65;;;1.67;;
62543;SDS011;48597;49.030;1.822;2023-07-31T09:00:07;1.83;;;1.40;;
62543;SDS011;48597;49.030;1.822;2023-07-31T09:03:19;1.95;;;1.35;;
62543;SDS011;48597;49.030;1.822;2023-07-31T09:05:28;3.45;;;1.90;;
62543;SDS011;48597;49.030;1.822;2023-07-31T09:07:55;2.83;;;1.90;;
62543;SDS011;48597;49.030;1.822;2023-07-31T09:10:21;3.28;;;1.80;;
62543;SDS011;48597;49.030;1.822;2023-07-31T09:12:47;3.72;;;1.90;;
62543;SDS011;48597;49.030;1.822;2023-07-31T09:15:14;3.20;;;2.10;;
62543;SDS011;48597;49.030;1.822;2023-07-31T09:17:40;2.60;;;2.10;;
62543;SDS011;48597;49.030;1.822;2023-07-31T09:20:18;3.17;;;1.67;;
62543;SDS011;48597;49.030;1.822;2023-07-31T09:22:45;3.53;;;1.70;;
62543;SDS011;48597;49.030;1.822;2023-07-31T09:27:48;3.33;;;2.08;;
62543;SDS011;48597;49.030;1.822;2023-07-31T09:30:20;2.35;;;1.52;;
62543;SDS011;48597;49.030;1.822;2023-07-31T09:32:47;3.45;;;1.77;;
62543;SDS011;48597;49.030;1.822;2023-07-31T09:35:15;3.50;;;1.83;;
62543;SDS011;48597;49.030;1.822;2023-07-31T09:37:52;3.50;;;1.65;;
62543;SDS011;48597;49.030;1.822;2023-07-31T09:40:52;3.22;;;1.92;;
62543;SDS011;48597;49.030;1.822;2023-07-31T09:43:17;6.32;;;1.60;;
62543;SDS011;48597;49.030;1.822;2023-07-31T09:45:46;5.35;;;1.85;;
62543;SDS011;48597;49.030;1.822;2023-07-31T09:48:13;6.88;;;2.10;;
62543;SDS011;48597;49.030;1.822;2023-07-31T09:50:46;4.07;;;2.15;;
62543;SDS011;48597;49.030;1.822;2023-07-31T09:53:12;5.03;;;2.27;;
62543;SDS011;48597;49.030;1.822;2023-07-31T09:55:38;3.38;;;2.00;;
62543;SDS011;48597;49.030;1.822;2023-07-31T09:58:06;3.53;;;1.83;;
62543;SDS011;48597;49.030;1.822;2023-07-31T10:00:33;5.65;;;2.00;;
62543;SDS011;48597;49.030;1.822;2023-07-31T10:02:59;7.30;;;2.28;;
62543;SDS011;48597;49.030;1.822;2023-07-31T10:05:30;8.00;;;2.70;;
62543;SDS011;48597;49.030;1.822;2023-07-31T10:07:59;5.55;;;2.00;;
62543;SDS011;48597;49.030;1.822;2023-07-31T10:10:25;6.85;;;2.25;;
62543;SDS011;48597;49.030;1.822;2023-07-31T10:12:52;6.78;;;2.40;;
62543;SDS011;48597;49.030;1.822;2023-07-31T10:15:19;6.60;;;2.50;;
62543;SDS011;48597;49.030;1.822;2023-07-31T10:17:48;8.93;;;2.17;;
62543;SDS011;48597;49.030;1.822;2023-07-31T10:20:19;5.53;;;2.40;;
62543;SDS011;48597;49.030;1.822;2023-07-31T10:22:46;4.68;;;2.60;;
62543;SDS011;48597;49.030;1.822;2023-07-31T10:25:11;4.40;;;2.60;;
62543;SDS011;48597;49.030;1.822;2023-07-31T10:27:40;7.53;;;2.70;;
62543;SDS011;48597;49.030;1.822;2023-07-31T10:30:07;5.88;;;2.80;;
62543;SDS011;48597;49.030;1.822;2023-07-31T10:32:34;5.07;;;2.60;;
62543;SDS011;48597;49.030;1.822;2023-07-31T10:35:01;7.60;;;2.53;;
62543;SDS011;48597;49.030;1.822;2023-07-31T10:37:29;8.45;;;2.60;;
62543;SDS011;48597;49.030;1.822;2023-07-31T10:40:02;5.15;;;2.60;;
62543;SDS011;48597;49.030;1.822;2023-07-31T10:45:39;5.28;;;2.40;;
62543;SDS011;48597;49.030;1.822;2023-07-31T10:48:14;4.95;;;2.20;;
62543;SDS011;48597;49.030;1.822;2023-07-31T10:51:06;5.38;;;2.40;;
62543;SDS011;48597;49.030;1.822;2023-07-31T10:53:32;7.93;;;2.22;;
62543;SDS011;48597;49.030;1.822;2023-07-31T10:56:04;4.47;;;2.10;;
62543;SDS011;48597;49.030;1.822;2023-07-31T10:58:34;6.45;;;2.60;;
62543;SDS011;48597;49.030;1.822;2023-07-31T11:01:02;4.93;;;2.30;;
62543;SDS011;48597;49.030;1.822;2023-07-31T11:06:08;5.13;;;2.10;;
62543;SDS011;48597;49.030;1.822;2023-07-31T11:08:34;4.93;;;1.90;;
62543;SDS011;48597;49.030;1.822;2023-07-31T11:11:07;5.13;;;2.08;;
62543;SDS011;48597;49.030;1.822;2023-07-31T11:13:40;5.22;;;2.50;;
62543;SDS011;48597;49.030;1.822;2023-07-31T11:16:06;7.05;;;2.22;;
62543;SDS011;48597;49.030;1.822;2023-07-31T11:18:32;5.82;;;2.20;;
62543;SDS011;48597;49.030;1.822;2023-07-31T11:20:57;6.22;;;2.10;;
62543;SDS011;48597;49.030;1.822;2023-07-31T11:23:23;4.05;;;2.00;;
62543;SDS011;48597;49.030;1.822;2023-07-31T11:25:49;7.18;;;2.55;;
62543;SDS011;48597;49.030;1.822;2023-07-31T11:28:16;4.65;;;2.13;;
62543;SDS011;48597;49.030;1.822;2023-07-31T11:30:43;2.80;;;1.92;;
62543;SDS011;48597;49.030;1.822;2023-07-31T11:33:10;3.38;;;2.00;;
62543;SDS011;48597;49.030;1.822;2023-07-31T11:35:46;5.45;;;2.33;;
62543;SDS011;48597;49.030;1.822;2023-07-31T11:38:23;6.85;;;2.22;;
62543;SDS011;48597;49.030;1.822;2023-07-31T11:40:51;4.70;;;2.20;;
62543;SDS011;48597;49.030;1.822;2023-07-31T11:43:17;6.28;;;2.38;;
62543;SDS011;48597;49.030;1.822;2023-07-31T11:45:47;3.78;;;1.90;;
62543;SDS011;48597;49.030;1.822;2023-07-31T11:48:24;3.28;;;2.00;;
62543;SDS011;48597;49.030;1.822;2023-07-31T11:50:51;5.82;;;2.40;;
62543;SDS011;48597;49.030;1.822;2023-07-31T11:53:18;4.53;;;1.98;;
62543;SDS011;48597;49.030;1.822;2023-07-31T11:55:53;5.55;;;2.25;;
62543;SDS011;48597;49.030;1.822;2023-07-31T11:58:19;4.13;;;2.10;;
62543;SDS011;48597;49.030;1.822;2023-07-31T12:00:46;4.32;;;1.92;;
62543;SDS011;48597;49.030;1.822;2023-07-31T12:03:12;4.78;;;2.13;;
62543;SDS011;48597;49.030;1.822;2023-07-31T12:05:37;5.28;;;2.08;;
62543;SDS011;48597;49.030;1.822;2023-07-31T12:08:08;3.08;;;1.63;;
62543;SDS011;48597;49.030;1.822;2023-07-31T12:10:35;5.25;;;1.98;;
62543;SDS011;48597;49.030;1.822;2023-07-31T12:13:03;5.10;;;2.00;;
62543;SDS011;48597;49.030;1.822;2023-07-31T12:15:37;4.75;;;1.80;;
62543;SDS011;48597;49.030;1.822;2023-07-31T12:18:07;5.68;;;1.80;;
62543;SDS011;48597;49.030;1.822;2023-07-31T12:20:41;5.10;;;1.98;;
62543;SDS011;48597;49.030;1.822;2023-07-31T12:23:14;5.00;;;1.95;;
62543;SDS011;48597;49.030;1.822;2023-07-31T12:28:07;4.53;;;1.95;;
62543;SDS011;48597;49.030;1.822;2023-07-31T12:30:36;5.25;;;2.13;;
62543;SDS011;48597;49.030;1.822;2023-07-31T12:33:03;4.68;;;2.20;;
62543;SDS011;48597;49.030;1.822;2023-07-31T12:35:37;4.53;;;2.20;;
62543;SDS011;48597;49.030;1.822;2023-07-31T12:38:05;3.22;;;2.10;;
62543;SDS011;48597;49.030;1.822;2023-07-31T12:40:31;4.45;;;2.28;;
62543;SDS011;48597;49.030;1.822;2023-07-31T12:42:56;3.25;;;1.70;;
62543;SDS011;48597;49.030;1.822;2023-07-31T12:45:21;3.70;;;1.95;;
62543;SDS011;48597;49.030;1.822;2023-07-31T12:47:48;2.83;;;1.90;;
62543;SDS011;48597;49.030;1.822;2023-07-31T12:50:16;5.10;;;1.85;;
62543;SDS011;48597;49.030;1.822;2023-07-31T12:52:42;4.65;;;2.20;;
62543;SDS011;48597;49.030;1.822;2023-07-31T12:55:07;4.57;;;1.98;;
62543;SDS011;48597;49.030;1.822;2023-07-31T12:57:33;2.15;;;1.65;;
62543;SDS011;48597;49.030;1.822;2023-07-31T12:59:58;5.93;;;2.10;;
62543;SDS011;48597;49.030;1.822;2023-07-31T13:02:23;3.85;;;1.73;;
62543;SDS011;48597;49.030;1.822;2023-07-31T13:04:49;3.90;;;2.10;;
62543;SDS011;48597;49.030;1.822;2023-07-31T13:07:15;4.60;;;2.00;;
62543;SDS011;48597;49.030;1.822;2023-07-31T13:09:40;2.75;;;1.88;;
62543;SDS011;48597;49.030;1.822;2023-07-31T13:12:06;3.33;;;2.00;;
62543;SDS011;48597;49.030;1.822;2023-07-31T13:14:32;3.50;;;1.85;;
62543;SDS011;48597;49.030;1.822;2023-07-31T13:16:57;3.40;;;1.92;;
62543;SDS011;48597;49.030;1.822;2023-07-31T13:19:23;4.65;;;2.35;;
62543;SDS011;48597;49.030;1.822;2023-07-31T13:21:48;3.28;;;2.00;;
62543;SDS011;48597;49.030;1.822;2023-07-31T13:24:13;3.20;;;1.75;;
62543;SDS011;48597;49.030;1.822;2023-07-31T13:26:39;3.13;;;1.60;;
62543;SDS011;48597;49.030;1.822;2023-07-31T13:29:04;3.08;;;1.70;;
62543;SDS011;48597;49.030;1.822;2023-07-31T13:31:29;3.92;;;1.95;;
62543;SDS011;48597;49.030;1.822;2023-07-31T13:33:55;5.65;;;2.25;;
62543;SDS011;48597;49.030;1.822;2023-07-31T13:36:20;3.85;;;1.92;;
62543;SDS011;48597;49.030;1.822;2023-07-31T13:38:46;3.40;;;1.80;;
62543;SDS011;48597;49.030;1.822;2023-07-31T13:41:11;3.90;;;1.80;;
62543;SDS011;48597;49.030;1.822;2023-07-31T13:43:36;3.05;;;2.00;;
62543;SDS011;48597;49.030;1.822;2023-07-31T13:46:02;3.55;;;1.83;;
62543;SDS011;48597;49.030;1.822;2023-07-31T13:48:31;3.42;;;2.00;;
62543;SDS011;48597;49.030;1.822;2023-07-31T13:50:59;4.55;;;1.92;;
62543;SDS011;48597;49.030;1.822;2023-07-31T13:53:24;2.58;;;1.83;;
62543;SDS011;48597;49.030;1.822;2023-07-31T13:55:49;3.45;;;1.67;;
62543;SDS011;48597;49.030;1.822;2023-07-31T13:58:15;3.45;;;1.80;;
62543;SDS011;48597;49.030;1.822;2023-07-31T14:00:40;2.35;;;1.70;;
62543;SDS011;48597;49.030;1.822;2023-07-31T14:03:06;3.58;;;1.60;;
62543;SDS011;48597;49.030;1.822;2023-07-31T14:05:31;2.95;;;1.60;;
62543;SDS011;48597;49.030;1.822;2023-07-31T14:07:56;2.47;;;1.52;;
62543;SDS011;48597;49.030;1.822;2023-07-31T14:10:22;2.67;;;1.70;;
62543;SDS011;48597;49.030;1.822;2023-07-31T14:12:47;2.63;;;1.60;;
62543;SDS011;48597;49.030;1.822;2023-07-31T14:15:12;2.88;;;1.63;;
62543;SDS011;48597;49.030;1.822;2023-07-31T14:17:38;3.40;;;1.83;;
62543;SDS011;48597;49.030;1.822;2023-07-31T14:20:04;3.25;;;1.83;;
62543;SDS011;48597;49.030;1.822;2023-07-31T14:22:30;1.83;;;1.55;;
62543;SDS011;48597;49.030;1.822;2023-07-31T14:24:56;2.42;;;1.80;;
62543;SDS011;48597;49.030;1.822;2023-07-31T14:27:21;1.95;;;1.48;;
62543;SDS011;48597;49.030;1.822;2023-07-31T14:29:46;3.45;;;1.73;;
62543;SDS011;48597;49.030;1.822;2023-07-31T14:32:12;3.22;;;1.80;;
62543;SDS011;48597;49.030;1.822;2023-07-31T14:34:37;5.20;;;1.90;;
62543;SDS011;48597;49.030;1.822;2023-07-31T14:37:03;3.03;;;1.70;;
62543;SDS011;48597;49.030;1.822;2023-07-31T14:39:29;3.05;;;1.60;;
62543;SDS011;48597;49.030;1.822;2023-07-31T14:41:54;4.90;;;1.80;;
62543;SDS011;48597;49.030;1.822;2023-07-31T14:44:19;2.28;;;1.45;;
62543;SDS011;48597;49.030;1.822;2023-07-31T14:46:45;2.08;;;1.60;;
62543;SDS011;48597;49.030;1.822;2023-07-31T14:49:10;2.28;;;1.67;;
62543;SDS011;48597;49.030;1.822;2023-07-31T14:51:35;2.83;;;1.70;;
62543;SDS011;48597;49.030;1.822;2023-07-31T14:54:01;2.33;;;1.67;;
62543;SDS011;48597;49.030;1.822;2023-07-31T14:56:26;3.83;;;1.77;;